Lyman, Washington
Current Conditions -  °F | °C
As of 5:15 AM on Friday 24 Oct 2014 (Local Time) from KAWO Reporting Station
Overcast Overcast  
Wind Chill: 48°   Ceiling: 4400
Heat Index: 48°   Visibility: 10mi
Dew Point: 43°   Wind: 0mph
Humidity: 82%   Direction: NA
Pressure: 30.05"   Gusts: NA
Location:  48.53°N, 122.06°W
Report Text: KAWO 241215Z AUTO 00000KT 10SM OVC044 09/06 A3005 RMK AO1
Loading
Personal Weather Stations






























Interactive Weather Map New forecast layout! Learn more

10-Day Weather Forecast

Advertisements
Track Severe Weather on mobile